createdAt,value
2018-12-22T00:02:23.181Z,97.70
2018-12-22T00:04:51.377Z,98.10
2018-12-22T00:07:19.857Z,98.30
2018-12-22T00:09:48.053Z,98.20
2018-12-22T00:12:16.237Z,97.90
2018-12-22T00:14:44.438Z,97.80
2018-12-22T00:17:12.629Z,97.70
2018-12-22T00:19:40.804Z,97.80
2018-12-22T00:22:08.992Z,97.50
2018-12-22T00:24:37.185Z,97.40
2018-12-22T00:27:05.369Z,97.30
2018-12-22T00:29:33.565Z,97.40
2018-12-22T00:32:01.853Z,97.40
2018-12-22T00:34:30.040Z,97.70
2018-12-22T00:36:58.229Z,97.90
2018-12-22T00:39:26.437Z,98.10
2018-12-22T00:41:54.657Z,98.20
2018-12-22T00:44:22.952Z,98.20
2018-12-22T00:46:51.153Z,98.50
2018-12-22T00:49:19.351Z,98.70
2018-12-22T00:51:47.532Z,99.10
2018-12-22T00:54:18.041Z,99.70
2018-12-22T00:56:46.153Z,99.90
2018-12-22T00:59:14.597Z,99.90
2018-12-22T01:01:42.881Z,99.90
2018-12-22T01:04:11.064Z,99.90
2018-12-22T01:06:39.252Z,99.90
2018-12-22T01:09:07.765Z,99.90
2018-12-22T01:11:36.236Z,99.90
2018-12-22T01:14:04.929Z,99.90
2018-12-22T01:16:33.425Z,99.90
2018-12-22T01:19:01.641Z,99.90
2018-12-22T01:21:29.941Z,99.90
2018-12-22T01:23:58.133Z,99.90
2018-12-22T01:26:26.496Z,99.90
2018-12-22T01:28:54.989Z,99.90
2018-12-22T01:31:23.186Z,99.90
2018-12-22T01:33:51.604Z,99.90
2018-12-22T01:36:20.064Z,99.90
2018-12-22T01:38:48.244Z,99.90
2018-12-22T01:41:16.441Z,99.90
2018-12-22T01:43:44.912Z,99.90
2018-12-22T01:46:13.110Z,99.90
2018-12-22T01:48:41.577Z,99.90
2018-12-22T01:51:09.764Z,99.90
2018-12-22T01:53:37.948Z,99.90
2018-12-22T01:56:06.173Z,99.90
2018-12-22T01:58:34.398Z,99.90
2018-12-22T02:01:02.602Z,99.90
2018-12-22T02:03:30.789Z,99.90
2018-12-22T02:05:58.974Z,99.90
2018-12-22T02:08:27.664Z,99.90
2018-12-22T02:10:56.377Z,99.90
2018-12-22T02:13:24.563Z,99.90
2018-12-22T02:15:52.781Z,99.90
2018-12-22T02:18:20.972Z,99.90
2018-12-22T02:20:49.148Z,99.90
2018-12-22T02:23:17.341Z,99.90
2018-12-22T02:25:45.856Z,99.90
2018-12-22T02:28:14.137Z,99.90
2018-12-22T02:30:42.316Z,99.90
2018-12-22T02:33:11.022Z,99.90
2018-12-22T02:35:39.235Z,99.90
2018-12-22T02:38:07.438Z,99.90
2018-12-22T02:40:35.621Z,99.90
2018-12-22T02:43:03.819Z,99.90
2018-12-22T02:45:32.002Z,99.90
2018-12-22T02:48:00.459Z,99.90
2018-12-22T02:50:28.644Z,99.90
2018-12-22T02:52:57.104Z,99.90
2018-12-22T02:55:25.289Z,99.90
2018-12-22T02:57:53.480Z,99.90
2018-12-22T03:00:21.668Z,99.90
2018-12-22T03:02:49.856Z,99.90
2018-12-22T03:08:08.805Z,99.90
2018-12-22T03:10:37.249Z,99.90
2018-12-22T03:13:05.751Z,99.90
2018-12-22T03:15:33.948Z,99.90
2018-12-22T03:18:02.416Z,99.90
2018-12-22T03:20:30.602Z,99.90
2018-12-22T03:22:58.793Z,99.90
2018-12-22T03:25:26.982Z,99.90
2018-12-22T03:27:55.176Z,99.90
2018-12-22T03:30:23.370Z,99.90
2018-12-22T03:32:51.833Z,99.90
2018-12-22T03:35:20.108Z,99.90
2018-12-22T03:37:48.338Z,99.90
2018-12-22T03:40:16.562Z,99.90
2018-12-22T03:42:44.785Z,99.90
2018-12-22T03:45:12.990Z,99.90
2018-12-22T03:47:41.512Z,99.90
2018-12-22T03:50:09.697Z,99.90
2018-12-22T03:52:37.897Z,99.90
2018-12-22T03:55:06.429Z,99.90
2018-12-22T03:57:34.652Z,99.90
2018-12-22T04:00:03.021Z,99.90
2018-12-22T04:02:31.320Z,99.90
2018-12-22T04:04:59.589Z,99.90
2018-12-22T04:07:28.010Z,99.90
2018-12-22T04:09:56.199Z,99.90
2018-12-22T04:12:24.485Z,99.90
2018-12-22T04:14:52.676Z,99.90
2018-12-22T04:17:20.872Z,99.90
2018-12-22T04:19:49.079Z,99.90
2018-12-22T04:22:17.309Z,99.60
2018-12-22T04:24:45.537Z,99.90
2018-12-22T04:27:13.755Z,99.20
2018-12-22T04:29:42.264Z,99.00
2018-12-22T04:32:10.471Z,98.40
2018-12-22T04:34:38.961Z,98.80
2018-12-22T04:37:07.156Z,98.10
2018-12-22T04:39:35.351Z,98.00
2018-12-22T04:42:03.628Z,97.80
2018-12-22T04:44:31.828Z,97.80
2018-12-22T04:47:00.012Z,97.60
2018-12-22T04:49:28.214Z,97.60
2018-12-22T04:51:56.400Z,97.40
2018-12-22T04:54:24.605Z,97.10
2018-12-22T04:56:53.084Z,97.10
2018-12-22T04:59:21.410Z,96.80
2018-12-22T05:01:49.728Z,96.60
2018-12-22T05:04:17.934Z,97.00
2018-12-22T05:06:46.128Z,96.60
2018-12-22T05:09:14.808Z,96.50
2018-12-22T05:11:43.000Z,96.50
2018-12-22T05:14:11.298Z,96.70
2018-12-22T05:16:39.493Z,96.60
2018-12-22T05:19:07.786Z,96.50
2018-12-22T05:21:35.982Z,96.50
2018-12-22T05:24:04.269Z,96.40
2018-12-22T05:26:32.458Z,96.10
2018-12-22T05:29:00.658Z,96.40
2018-12-22T05:31:28.968Z,95.80
2018-12-22T05:33:57.169Z,95.80
2018-12-22T05:36:25.369Z,95.70
2018-12-22T05:38:53.626Z,95.70
2018-12-22T05:41:21.930Z,95.50
2018-12-22T05:43:50.136Z,95.60
2018-12-22T05:46:18.437Z,95.70
2018-12-22T05:48:46.980Z,95.80
2018-12-22T05:51:15.269Z,95.60
2018-12-22T05:53:43.481Z,95.60
2018-12-22T05:56:11.874Z,95.70
2018-12-22T05:58:40.140Z,95.70
2018-12-22T06:01:08.339Z,95.70
2018-12-22T06:03:36.532Z,95.20
2018-12-22T06:06:04.811Z,95.00
2018-12-22T06:08:33.014Z,95.50
2018-12-22T06:11:01.430Z,95.90
2018-12-22T06:13:30.405Z,96.00
2018-12-22T06:15:58.609Z,96.30
2018-12-22T06:18:26.897Z,96.50
2018-12-22T06:20:55.438Z,96.50
2018-12-22T06:23:23.774Z,96.60
2018-12-22T06:25:51.997Z,96.60
2018-12-22T06:28:20.201Z,96.30
2018-12-22T06:30:48.436Z,96.20
2018-12-22T06:33:16.649Z,96.20
2018-12-22T06:35:45.012Z,95.80
2018-12-22T06:38:13.220Z,95.80
2018-12-22T06:40:42.033Z,95.80
2018-12-22T06:43:10.324Z,95.80
2018-12-22T06:45:38.785Z,95.60
2018-12-22T06:48:07.000Z,95.10
2018-12-22T06:50:35.976Z,95.00
2018-12-22T06:53:04.372Z,94.90
2018-12-22T06:55:32.629Z,94.80
2018-12-22T06:58:00.864Z,94.50
2018-12-22T07:00:29.317Z,94.50
2018-12-22T07:02:57.522Z,94.60
2018-12-22T07:05:25.725Z,94.40
2018-12-22T07:07:54.030Z,94.40
2018-12-22T07:10:22.458Z,94.50
2018-12-22T07:12:50.699Z,94.30
2018-12-22T07:15:19.018Z,94.50
2018-12-22T07:17:47.208Z,94.40
2018-12-22T07:20:16.068Z,94.60
2018-12-22T07:22:44.389Z,94.20
2018-12-22T07:25:12.902Z,94.10
2018-12-22T07:27:41.411Z,94.00
2018-12-22T07:30:10.240Z,94.00
2018-12-22T07:32:38.458Z,94.00
2018-12-22T07:35:06.743Z,93.90
2018-12-22T07:37:34.942Z,93.60
2018-12-22T07:40:03.393Z,93.60
2018-12-22T07:42:31.917Z,93.60
2018-12-22T07:45:00.176Z,93.50
2018-12-22T07:47:28.624Z,93.20
2018-12-22T07:49:56.816Z,93.40
2018-12-22T07:52:25.005Z,93.40
2018-12-22T07:54:53.221Z,93.30
2018-12-22T07:57:21.550Z,93.10
2018-12-22T07:59:49.774Z,93.10
2018-12-22T08:02:18.006Z,93.10
2018-12-22T08:04:46.533Z,93.30
2018-12-22T08:07:15.056Z,93.20
2018-12-22T08:09:43.252Z,93.30
2018-12-22T08:12:11.469Z,93.30
2018-12-22T08:14:39.668Z,93.20
2018-12-22T08:17:07.856Z,93.20
2018-12-22T08:19:36.149Z,93.30
2018-12-22T08:22:04.446Z,93.40
2018-12-22T08:24:32.641Z,93.20
2018-12-22T08:27:00.829Z,93.40
2018-12-22T08:29:29.281Z,93.40
2018-12-22T08:31:57.712Z,93.10
2018-12-22T08:34:25.931Z,93.20
2018-12-22T08:36:54.508Z,93.40
2018-12-22T08:39:22.920Z,93.30
2018-12-22T08:41:51.430Z,93.70
2018-12-22T08:44:19.678Z,93.80
2018-12-22T08:46:47.892Z,94.10
2018-12-22T08:49:16.095Z,94.20
2018-12-22T08:51:44.294Z,94.20
2018-12-22T08:54:12.492Z,94.30
2018-12-22T08:56:40.780Z,94.10
2018-12-22T08:59:08.988Z,94.30
2018-12-22T09:01:37.185Z,94.20
2018-12-22T09:04:05.409Z,94.00
2018-12-22T09:06:33.599Z,93.70
2018-12-22T09:09:02.139Z,93.80
2018-12-22T09:11:30.330Z,93.60
2018-12-22T09:13:58.603Z,93.30
2018-12-22T09:16:26.845Z,93.50
2018-12-22T09:18:55.036Z,93.30
2018-12-22T09:21:23.234Z,93.30
2018-12-22T09:23:51.736Z,93.20
2018-12-22T09:26:20.037Z,93.20
2018-12-22T09:28:48.270Z,93.20
2018-12-22T09:31:16.495Z,93.10
2018-12-22T09:33:44.706Z,93.20
2018-12-22T09:36:13.297Z,92.90
2018-12-22T09:38:41.825Z,92.80
2018-12-22T09:41:10.024Z,92.60
2018-12-22T09:43:38.229Z,92.40
2018-12-22T09:46:06.736Z,92.20
2018-12-22T09:48:34.927Z,92.30
2018-12-22T09:51:03.520Z,92.20
2018-12-22T09:53:32.036Z,92.10
2018-12-22T09:56:00.529Z,92.20
2018-12-22T09:58:28.721Z,92.30
2018-12-22T10:00:56.921Z,92.00
2018-12-22T10:03:25.112Z,92.00
2018-12-22T10:05:53.313Z,91.50
2018-12-22T10:08:21.505Z,91.50
2018-12-22T10:10:49.705Z,91.60
2018-12-22T10:13:18.293Z,91.60
2018-12-22T10:15:46.527Z,91.50
2018-12-22T10:18:14.749Z,91.30
2018-12-22T10:20:42.986Z,91.10
2018-12-22T10:23:11.185Z,90.80
2018-12-22T10:25:39.916Z,90.80
2018-12-22T10:28:08.176Z,90.40
2018-12-22T10:30:36.371Z,90.20
2018-12-22T10:33:06.097Z,90.00
2018-12-22T10:35:34.749Z,89.90
2018-12-22T10:38:03.030Z,90.10
2018-12-22T10:40:31.229Z,90.40
2018-12-22T10:42:59.453Z,90.40
2018-12-22T10:45:27.745Z,90.80
2018-12-22T10:47:55.937Z,90.90
2018-12-22T10:50:24.136Z,91.30
2018-12-22T10:52:52.335Z,91.40
2018-12-22T10:55:20.541Z,91.70
2018-12-22T10:57:48.730Z,91.70
2018-12-22T11:00:18.182Z,91.80
2018-12-22T11:02:46.406Z,91.90
2018-12-22T11:05:16.242Z,92.10
2018-12-22T11:07:44.607Z,92.20
2018-12-22T11:10:18.417Z,92.10
2018-12-22T11:12:46.609Z,92.10
2018-12-22T11:15:14.816Z,92.00
2018-12-22T11:17:43.244Z,91.90
2018-12-22T11:20:11.444Z,91.80
2018-12-22T11:22:39.929Z,91.80
2018-12-22T11:25:15.072Z,91.60
2018-12-22T11:27:43.373Z,91.60
2018-12-22T11:30:19.636Z,91.90
2018-12-22T11:32:47.833Z,92.00
2018-12-22T11:35:16.028Z,92.10
2018-12-22T11:37:44.397Z,91.80
2018-12-22T11:40:12.628Z,91.60
2018-12-22T11:42:47.673Z,91.60
2018-12-22T11:45:11.071Z,91.60
2018-12-22T11:48:49.873Z,92.10
2018-12-22T11:51:18.232Z,91.90
2018-12-22T11:53:46.517Z,91.60
2018-12-22T11:56:14.720Z,91.70
2018-12-22T11:58:42.909Z,91.50
2018-12-22T12:01:11.110Z,91.60
2018-12-22T12:03:39.337Z,91.30
2018-12-22T12:06:07.566Z,91.30
2018-12-22T12:08:35.777Z,91.10
2018-12-22T12:11:03.985Z,91.10
2018-12-22T12:13:32.184Z,91.20
2018-12-22T12:16:09.684Z,91.30
2018-12-22T12:19:42.742Z,91.40
2018-12-22T12:22:10.937Z,91.20
2018-12-22T12:24:39.244Z,91.40
2018-12-22T12:27:07.472Z,91.50
2018-12-22T12:29:35.706Z,91.40
2018-12-22T12:32:04.041Z,91.50
2018-12-22T12:34:32.241Z,91.60
2018-12-22T12:37:00.440Z,91.40
2018-12-22T12:39:28.857Z,91.20
2018-12-22T12:41:57.504Z,91.30
2018-12-22T12:44:25.960Z,91.20
2018-12-22T12:46:54.863Z,91.20
2018-12-22T12:49:23.552Z,91.20
2018-12-22T12:51:51.837Z,91.40
2018-12-22T12:54:21.241Z,91.50
2018-12-22T12:56:52.212Z,91.40
2018-12-22T12:59:20.652Z,91.70
2018-12-22T13:01:49.500Z,91.40
2018-12-22T13:04:17.829Z,91.40
2018-12-22T13:06:46.118Z,91.50
2018-12-22T13:09:15.909Z,91.40
2018-12-22T13:11:44.299Z,91.30
2018-12-22T13:14:16.355Z,91.40
2018-12-22T13:16:44.650Z,91.50
2018-12-22T13:19:12.874Z,91.40
2018-12-22T13:21:43.308Z,91.40
2018-12-22T13:24:11.544Z,91.10
2018-12-22T13:26:39.828Z,91.00
2018-12-22T13:29:08.357Z,91.00
2018-12-22T13:31:36.616Z,90.80
2018-12-22T13:34:05.824Z,91.20
2018-12-22T13:36:34.887Z,91.10
2018-12-22T13:39:30.129Z,91.20
2018-12-22T13:41:58.336Z,90.90
2018-12-22T13:44:26.731Z,91.00
2018-12-22T13:46:54.928Z,91.00
2018-12-22T13:49:23.200Z,91.30
2018-12-22T13:51:51.593Z,91.30
2018-12-22T13:54:23.891Z,91.30
2018-12-22T13:56:52.118Z,91.50
2018-12-22T13:59:20.504Z,91.30
2018-12-22T14:01:52.988Z,91.30
2018-12-22T14:04:22.216Z,91.40
2018-12-22T14:06:50.485Z,91.20
2018-12-22T14:09:18.753Z,91.40
2018-12-22T14:11:46.964Z,91.50
2018-12-22T14:14:18.664Z,91.50
2018-12-22T14:16:52.976Z,91.50
2018-12-22T14:19:21.356Z,91.50
2018-12-22T14:21:50.341Z,91.40
2018-12-22T14:24:50.694Z,91.50
2018-12-22T14:27:19.038Z,91.60
2018-12-22T14:29:47.248Z,92.70
2018-12-22T14:32:15.459Z,93.60
2018-12-22T14:34:49.107Z,93.70
2018-12-22T14:37:17.304Z,93.70
2018-12-22T14:39:45.508Z,94.30
2018-12-22T14:42:13.709Z,94.70
2018-12-22T14:44:41.998Z,94.70
2018-12-22T14:47:10.532Z,94.60
2018-12-22T14:49:38.724Z,94.80
2018-12-22T14:52:07.493Z,95.20
2018-12-22T14:54:35.781Z,95.20
2018-12-22T14:57:04.072Z,95.50
2018-12-22T14:59:32.299Z,95.10
2018-12-22T15:02:01.933Z,95.20
2018-12-22T15:04:30.365Z,95.30
2018-12-22T15:06:58.602Z,94.80
2018-12-22T15:09:26.833Z,94.90
2018-12-22T15:11:55.053Z,94.80
2018-12-22T15:14:23.293Z,94.70
2018-12-22T15:16:51.456Z,94.60
2018-12-22T15:19:19.924Z,94.30
2018-12-22T15:21:53.511Z,94.70
2018-12-22T15:24:21.721Z,94.60
2018-12-22T15:26:50.507Z,94.40
2018-12-22T15:29:19.150Z,94.40
2018-12-22T15:31:47.364Z,94.60
2018-12-22T15:34:15.624Z,94.60
2018-12-22T15:36:44.148Z,94.60
2018-12-22T15:39:12.464Z,94.70
2018-12-22T15:41:40.651Z,95.10
2018-12-22T15:44:08.901Z,95.40
2018-12-22T15:46:37.189Z,95.30
2018-12-22T15:49:05.397Z,95.40
2018-12-22T15:51:33.610Z,95.40
2018-12-22T15:54:01.810Z,96.00
2018-12-22T15:56:30.012Z,96.50
2018-12-22T15:58:58.234Z,96.50
2018-12-22T16:01:26.463Z,96.30
2018-12-22T16:03:54.757Z,96.20
2018-12-22T16:06:22.969Z,96.40
2018-12-22T16:08:51.189Z,96.30
2018-12-22T16:11:19.381Z,96.90
2018-12-22T16:13:47.841Z,96.80
2018-12-22T16:16:16.032Z,96.80
2018-12-22T16:18:44.229Z,96.70
2018-12-22T16:21:12.441Z,97.00
2018-12-22T16:23:40.880Z,97.00
2018-12-22T16:26:09.480Z,97.50
2018-12-22T16:28:42.674Z,97.40
2018-12-22T16:31:10.852Z,97.70
2018-12-22T16:33:39.057Z,97.70
2018-12-22T16:36:07.253Z,98.10
2018-12-22T16:38:35.858Z,98.10
2018-12-22T16:41:04.187Z,98.30
2018-12-22T16:43:32.526Z,98.30
2018-12-22T16:46:00.725Z,98.50
2018-12-22T16:48:29.317Z,98.60
2018-12-22T16:50:57.508Z,99.00
2018-12-22T16:53:26.012Z,99.10
2018-12-22T16:55:54.512Z,99.00
2018-12-22T16:58:33.036Z,99.10
2018-12-22T17:01:18.497Z,99.10
2018-12-22T17:03:46.858Z,99.20
2018-12-22T17:06:15.860Z,99.40
2018-12-22T17:08:44.149Z,99.20
2018-12-22T17:11:12.340Z,99.40
2018-12-22T17:13:41.347Z,99.40
2018-12-22T17:16:09.571Z,99.30
2018-12-22T17:18:37.778Z,99.20
2018-12-22T17:21:14.560Z,99.30
2018-12-22T17:23:50.887Z,99.30
2018-12-22T17:26:19.884Z,99.40
2018-12-22T17:28:48.156Z,99.20
2018-12-22T17:31:16.336Z,99.10
2018-12-22T17:33:44.608Z,99.20
2018-12-22T17:36:12.880Z,99.20
2018-12-22T17:38:41.077Z,99.40
2018-12-22T17:41:09.263Z,99.30
2018-12-22T17:43:38.992Z,99.10
2018-12-22T17:46:07.221Z,99.30
2018-12-22T17:48:35.426Z,99.10
2018-12-22T17:51:03.833Z,99.00
2018-12-22T17:53:32.042Z,99.10
2018-12-22T17:56:00.242Z,98.90
2018-12-22T17:58:28.418Z,98.90
2018-12-22T18:00:56.880Z,99.20
2018-12-22T18:03:29.081Z,99.00
2018-12-22T18:05:57.288Z,99.00
2018-12-22T18:08:25.564Z,99.20
2018-12-22T18:10:53.748Z,99.30
2018-12-22T18:13:21.928Z,99.40
2018-12-22T18:15:50.457Z,99.40
2018-12-22T18:18:18.684Z,99.10
2018-12-22T18:20:46.880Z,99.10
2018-12-22T18:23:15.060Z,98.60
2018-12-22T18:25:43.240Z,98.50
2018-12-22T18:28:11.441Z,98.30
2018-12-22T18:30:39.655Z,98.20
2018-12-22T18:33:07.863Z,98.40
2018-12-22T18:35:36.228Z,98.00
2018-12-22T18:38:04.504Z,98.00
2018-12-22T18:40:32.686Z,98.00
2018-12-22T18:43:01.325Z,97.80
2018-12-22T18:45:29.499Z,97.70
2018-12-22T18:47:57.680Z,97.90
2018-12-22T18:50:27.088Z,98.20
2018-12-22T18:52:55.560Z,98.20
2018-12-22T18:55:23.963Z,98.70
2018-12-22T18:57:54.438Z,98.60
2018-12-22T19:00:23.744Z,98.60
2018-12-22T19:02:52.420Z,98.50
2018-12-22T19:05:22.247Z,98.80
2018-12-22T19:07:53.122Z,98.80
2018-12-22T19:10:28.536Z,98.70
2018-12-22T19:12:56.744Z,98.60
2018-12-22T19:15:24.977Z,98.80
2018-12-22T19:17:53.146Z,98.70
2018-12-22T19:20:25.572Z,98.70
2018-12-22T19:22:53.847Z,99.20
2018-12-22T19:25:22.007Z,99.20
2018-12-22T19:27:50.193Z,99.20
2018-12-22T19:30:18.376Z,99.30
2018-12-22T19:32:46.636Z,99.40
2018-12-22T19:35:14.808Z,99.40
2018-12-22T19:37:42.989Z,99.20
2018-12-22T19:40:11.168Z,99.10
2018-12-22T19:42:39.348Z,98.70
2018-12-22T19:45:07.813Z,98.70
2018-12-22T19:47:35.999Z,98.60
2018-12-22T19:50:04.732Z,98.60
2018-12-22T19:52:33.423Z,98.50
2018-12-22T19:55:01.614Z,98.10
2018-12-22T19:57:29.828Z,98.40
2018-12-22T19:59:58.038Z,98.20
2018-12-22T20:02:26.230Z,97.90
2018-12-22T20:04:54.416Z,97.70
2018-12-22T20:07:22.592Z,97.70
2018-12-22T20:09:50.768Z,98.00
2018-12-22T20:12:18.949Z,98.20
2018-12-22T20:14:47.133Z,98.40
2018-12-22T20:17:15.643Z,98.60
2018-12-22T20:19:43.824Z,98.60
2018-12-22T20:22:12.017Z,98.60
2018-12-22T20:24:40.280Z,98.70
2018-12-22T20:27:08.485Z,98.70
2018-12-22T20:29:36.652Z,98.70
2018-12-22T20:32:04.828Z,98.90
2018-12-22T20:34:33.000Z,98.60
2018-12-22T20:37:01.176Z,98.60
2018-12-22T20:39:29.349Z,98.70
2018-12-22T20:41:57.599Z,98.50
2018-12-22T20:44:25.804Z,98.30
2018-12-22T20:46:53.988Z,98.30
2018-12-22T20:49:22.176Z,98.10
2018-12-22T20:51:50.668Z,97.90
2018-12-22T20:54:18.835Z,97.90
2018-12-22T20:56:47.322Z,98.10
2018-12-22T20:59:15.496Z,97.90
2018-12-22T21:01:43.765Z,97.90
2018-12-22T21:04:19.769Z,97.90
2018-12-22T21:06:42.781Z,98.10
2018-12-22T21:09:10.980Z,98.00
2018-12-22T21:11:39.344Z,98.20
2018-12-22T21:14:07.532Z,98.30
2018-12-22T21:16:35.710Z,98.00
2018-12-22T21:19:04.011Z,98.10
2018-12-22T21:21:32.940Z,98.00
2018-12-22T21:24:01.713Z,98.00
2018-12-22T21:26:29.980Z,98.00
2018-12-22T21:28:58.414Z,98.10
2018-12-22T21:31:26.626Z,98.00
2018-12-22T21:33:54.822Z,98.00
2018-12-22T21:36:23.004Z,97.90
2018-12-22T21:38:51.612Z,98.00
2018-12-22T21:41:19.784Z,97.70
2018-12-22T21:43:47.968Z,98.00
2018-12-22T21:46:16.473Z,97.70
2018-12-22T21:48:45.022Z,97.80
2018-12-22T21:51:13.188Z,97.70
2018-12-22T21:53:41.373Z,97.60
2018-12-22T21:56:09.552Z,97.70
2018-12-22T21:58:37.732Z,97.60
2018-12-22T22:01:06.001Z,97.80
2018-12-22T22:03:34.208Z,97.70
2018-12-22T22:06:02.373Z,97.70
2018-12-22T22:08:30.635Z,97.40
2018-12-22T22:10:59.053Z,97.70
2018-12-22T22:13:27.302Z,97.70
2018-12-22T22:15:55.523Z,97.50
2018-12-22T22:18:23.759Z,97.50
2018-12-22T22:20:51.966Z,97.30
2018-12-22T22:23:20.209Z,97.40
2018-12-22T22:25:49.138Z,97.30
2018-12-22T22:28:17.334Z,97.10
2018-12-22T22:30:45.525Z,97.00
2018-12-22T22:33:14.006Z,97.20
2018-12-22T22:35:42.185Z,97.20
2018-12-22T22:38:10.473Z,97.20
2018-12-22T22:40:38.919Z,97.10
2018-12-22T22:43:07.108Z,97.00
2018-12-22T22:45:35.494Z,97.00
2018-12-22T22:48:03.789Z,96.70
2018-12-22T22:50:32.304Z,96.80
2018-12-22T22:53:00.596Z,96.80
2018-12-22T22:55:28.784Z,97.10
2018-12-22T22:57:56.970Z,96.80
2018-12-22T23:00:29.417Z,96.70
2018-12-22T23:02:57.646Z,96.70
2018-12-22T23:05:25.862Z,97.00
2018-12-22T23:07:54.076Z,96.90
2018-12-22T23:10:22.271Z,96.80
2018-12-22T23:12:50.453Z,96.70
2018-12-22T23:15:18.889Z,96.70
2018-12-22T23:17:47.081Z,96.70
2018-12-22T23:20:15.275Z,96.70
2018-12-22T23:22:43.465Z,96.60
2018-12-22T23:25:11.836Z,96.70
2018-12-22T23:27:40.021Z,96.90
2018-12-22T23:30:08.785Z,96.90
2018-12-22T23:32:36.978Z,96.80
2018-12-22T23:35:05.726Z,96.90
2018-12-22T23:37:33.932Z,97.20
2018-12-22T23:40:02.216Z,97.10
2018-12-22T23:42:30.401Z,96.90
2018-12-22T23:44:59.860Z,97.10
2018-12-22T23:47:28.162Z,97.20
2018-12-22T23:49:56.373Z,97.30
2018-12-22T23:52:24.602Z,97.70
2018-12-22T23:54:52.821Z,97.90
2018-12-22T23:57:21.108Z,98.40
2018-12-22T23:59:49.305Z,98.70
